createdAt,value
2022-12-10T00:01:28.183Z,0.70
2022-12-10T00:03:56.531Z,0.70
2022-12-10T00:06:26.917Z,0.70
2022-12-10T00:08:55.527Z,0.70
2022-12-10T00:11:25.030Z,0.70
2022-12-10T00:13:54.449Z,0.70
2022-12-10T00:16:25.388Z,0.80
2022-12-10T00:18:54.529Z,0.80
2022-12-10T00:21:26.092Z,0.80
2022-12-10T00:23:54.511Z,0.80
2022-12-10T00:26:24.344Z,0.80
2022-12-10T00:28:53.307Z,0.80
2022-12-10T00:31:24.691Z,0.80
2022-12-10T00:33:54.786Z,0.80
2022-12-10T00:36:24.992Z,0.80
2022-12-10T00:38:53.748Z,0.80
2022-12-10T00:41:21.999Z,0.80
2022-12-10T00:43:50.241Z,0.90
2022-12-10T00:46:19.711Z,0.90
2022-12-10T00:48:49.188Z,0.90
2022-12-10T00:51:19.504Z,0.90
2022-12-10T00:53:48.880Z,0.90
2022-12-10T00:56:19.068Z,0.90
2022-12-10T00:58:48.386Z,0.90
2022-12-10T01:01:19.513Z,0.90
2022-12-10T01:03:50.887Z,0.90
2022-12-10T01:06:22.019Z,0.90
2022-12-10T01:08:51.172Z,0.90
2022-12-10T01:11:21.143Z,0.90
2022-12-10T01:13:50.191Z,0.90
2022-12-10T01:16:21.581Z,0.90
2022-12-10T01:18:51.134Z,0.90
2022-12-10T01:21:21.234Z,1.00
2022-12-10T01:23:51.428Z,1.00
2022-12-10T01:26:22.138Z,1.00
2022-12-10T01:28:50.997Z,1.00
2022-12-10T01:31:21.289Z,1.00
2022-12-10T01:33:51.460Z,1.00
2022-12-10T01:36:21.777Z,1.00
2022-12-10T01:38:50.311Z,1.00
2022-12-10T01:41:21.554Z,1.00
2022-12-10T01:43:56.074Z,1.00
2022-12-10T01:46:25.237Z,1.00
2022-12-10T01:48:55.024Z,1.00
2022-12-10T01:51:24.224Z,1.00
2022-12-10T01:53:52.660Z,1.00
2022-12-10T01:56:22.316Z,1.00
2022-12-10T01:58:52.544Z,1.00
2022-12-10T02:01:29.982Z,1.00
2022-12-10T02:04:14.753Z,1.00
2022-12-10T02:09:45.136Z,1.00
2022-12-10T02:12:17.520Z,1.00
2022-12-10T02:14:56.227Z,1.00
2022-12-10T02:17:29.144Z,1.00
2022-12-10T02:20:08.862Z,1.00
2022-12-10T02:22:42.180Z,1.00
2022-12-10T02:25:13.975Z,1.00
2022-12-10T02:27:48.218Z,1.00
2022-12-10T02:30:17.835Z,1.00
2022-12-10T02:32:47.943Z,1.00
2022-12-10T02:35:20.234Z,1.00
2022-12-10T02:37:51.807Z,1.00
2022-12-10T02:40:24.585Z,1.00
2022-12-10T02:42:53.764Z,1.00
2022-12-10T02:45:25.616Z,1.00
2022-12-10T02:47:56.534Z,1.00
2022-12-10T02:50:25.028Z,1.00
2022-12-10T02:52:53.138Z,1.00
2022-12-10T02:55:21.525Z,1.00
2022-12-10T02:58:04.445Z,1.00
2022-12-10T03:00:36.816Z,1.10
2022-12-10T03:03:19.821Z,1.00
2022-12-10T03:05:51.708Z,1.10
2022-12-10T03:08:24.646Z,1.10
2022-12-10T03:10:57.537Z,1.10
2022-12-10T03:13:31.416Z,1.10
2022-12-10T03:16:02.788Z,1.10
2022-12-10T03:18:33.839Z,1.10
2022-12-10T03:21:06.134Z,1.10
2022-12-10T03:23:37.133Z,1.10
2022-12-10T03:26:06.608Z,1.10
2022-12-10T03:28:40.445Z,1.10
2022-12-10T03:31:12.327Z,1.10
2022-12-10T03:33:41.260Z,1.10
2022-12-10T03:36:10.712Z,1.10
2022-12-10T03:38:39.370Z,1.10
2022-12-10T03:41:07.505Z,1.10
2022-12-10T03:43:36.082Z,1.10
2022-12-10T03:46:04.566Z,1.10
2022-12-10T03:48:33.931Z,1.10
2022-12-10T03:51:01.908Z,1.10
2022-12-10T03:53:29.997Z,1.10
2022-12-10T03:55:57.956Z,1.10
2022-12-10T03:58:25.951Z,1.20
2022-12-10T04:00:53.959Z,1.20
2022-12-10T04:03:21.982Z,1.20
2022-12-10T04:05:51.350Z,1.20
2022-12-10T04:08:19.410Z,1.20
2022-12-10T04:10:47.398Z,1.20
2022-12-10T04:13:32.872Z,1.20
2022-12-10T04:16:18.350Z,1.20
2022-12-10T04:18:46.319Z,1.20
2022-12-10T04:21:32.945Z,1.20
2022-12-10T04:24:26.768Z,1.20
2022-12-10T04:26:55.038Z,1.20
2022-12-10T04:29:24.189Z,1.20
2022-12-10T04:31:52.405Z,1.20
2022-12-10T04:34:20.906Z,1.20
2022-12-10T04:36:50.620Z,1.20
2022-12-10T04:39:19.071Z,1.20
2022-12-10T04:41:48.803Z,1.20
2022-12-10T04:44:16.953Z,1.20
2022-12-10T04:46:44.891Z,1.20
2022-12-10T04:49:13.364Z,1.20
2022-12-10T04:51:42.194Z,1.20
2022-12-10T04:54:12.266Z,1.20
2022-12-10T04:56:40.328Z,1.20
2022-12-10T04:59:08.907Z,1.20
2022-12-10T05:01:37.362Z,1.20
2022-12-10T05:04:07.637Z,1.20
2022-12-10T05:06:36.332Z,1.20
2022-12-10T05:09:04.887Z,1.10
2022-12-10T05:11:35.990Z,1.10
2022-12-10T05:14:04.083Z,1.10
2022-12-10T05:16:34.072Z,1.20
2022-12-10T05:19:02.429Z,1.20
2022-12-10T05:21:51.921Z,1.20
2022-12-10T05:24:19.476Z,1.20
2022-12-10T05:26:51.944Z,1.10
2022-12-10T05:29:20.567Z,1.20
2022-12-10T05:31:48.908Z,1.20
2022-12-10T05:34:16.884Z,1.20
2022-12-10T05:36:45.068Z,1.20
2022-12-10T05:39:13.255Z,1.20
2022-12-10T05:41:41.972Z,1.20
2022-12-10T05:44:12.297Z,1.10
2022-12-10T05:46:40.612Z,1.20
2022-12-10T05:49:09.114Z,1.20
2022-12-10T05:51:39.386Z,1.20
2022-12-10T05:54:10.166Z,1.20
2022-12-10T05:56:39.490Z,1.20
2022-12-10T05:59:14.612Z,1.20
2022-12-10T06:01:46.120Z,1.20
2022-12-10T06:04:14.381Z,1.20
2022-12-10T06:06:42.882Z,1.20
2022-12-10T06:09:14.798Z,1.20
2022-12-10T06:11:43.195Z,1.20
2022-12-10T06:14:12.232Z,1.20
2022-12-10T06:16:42.638Z,1.20
2022-12-10T06:19:12.002Z,1.20
2022-12-10T06:21:40.204Z,1.20
2022-12-10T06:24:09.203Z,1.20
2022-12-10T06:26:37.264Z,1.20
2022-12-10T06:29:06.334Z,1.20
2022-12-10T06:31:34.394Z,1.20
2022-12-10T06:34:02.449Z,1.20
2022-12-10T06:36:31.825Z,1.20
2022-12-10T06:38:59.885Z,1.20
2022-12-10T06:41:27.980Z,1.20
2022-12-10T06:43:59.289Z,1.20
2022-12-10T06:46:29.605Z,1.20
2022-12-10T06:48:57.872Z,1.20
2022-12-10T06:51:25.969Z,1.20
2022-12-10T06:53:55.307Z,1.20
2022-12-10T06:56:23.865Z,1.20
2022-12-10T06:58:52.039Z,1.20
2022-12-10T07:01:22.297Z,1.20
2022-12-10T07:03:51.494Z,1.20
2022-12-10T07:06:20.146Z,1.20
2022-12-10T07:08:48.922Z,1.20
2022-12-10T07:11:20.514Z,1.20
2022-12-10T07:13:48.679Z,1.20
2022-12-10T07:16:18.506Z,1.20
2022-12-10T07:18:51.808Z,1.20
2022-12-10T07:21:22.608Z,1.20
2022-12-10T07:23:51.084Z,1.20
2022-12-10T07:26:20.414Z,1.20
2022-12-10T07:28:53.217Z,1.20
2022-12-10T07:31:23.341Z,1.20
2022-12-10T07:33:52.103Z,1.20
2022-12-10T07:36:20.654Z,1.20
2022-12-10T07:38:48.763Z,1.20
2022-12-10T07:41:17.100Z,1.20
2022-12-10T07:43:47.430Z,1.20
2022-12-10T07:46:18.438Z,1.20
2022-12-10T07:48:48.728Z,1.20
2022-12-10T07:51:18.425Z,1.20
2022-12-10T07:53:46.765Z,1.20
2022-12-10T07:56:15.075Z,1.20
2022-12-10T07:58:44.355Z,1.20
2022-12-10T08:01:15.956Z,1.20
2022-12-10T08:03:44.456Z,1.20
2022-12-10T08:06:15.072Z,1.20
2022-12-10T08:08:43.923Z,1.20
2022-12-10T08:11:12.890Z,1.20
2022-12-10T08:13:41.289Z,1.20
2022-12-10T08:16:14.484Z,1.20
2022-12-10T08:18:42.931Z,1.20
2022-12-10T08:21:12.894Z,1.20
2022-12-10T08:23:41.829Z,1.20
2022-12-10T08:26:11.680Z,1.20
2022-12-10T08:28:40.159Z,1.20
2022-12-10T08:31:10.882Z,1.20
2022-12-10T08:33:41.162Z,1.20
2022-12-10T08:36:12.161Z,1.20
2022-12-10T08:38:40.468Z,1.20
2022-12-10T08:41:09.881Z,1.20
2022-12-10T08:43:38.465Z,1.20
2022-12-10T08:46:06.940Z,1.20
2022-12-10T08:48:35.860Z,1.20
2022-12-10T08:51:05.763Z,1.20
2022-12-10T08:53:34.022Z,1.20
2022-12-10T08:56:02.317Z,1.20
2022-12-10T08:58:30.274Z,1.20
2022-12-10T09:00:58.286Z,1.20
2022-12-10T09:03:26.327Z,1.20
2022-12-10T09:05:54.299Z,1.20
2022-12-10T09:08:23.696Z,1.30
2022-12-10T09:10:51.792Z,1.30
2022-12-10T09:13:19.825Z,1.30
2022-12-10T09:15:52.989Z,1.30
2022-12-10T09:18:21.356Z,1.30
2022-12-10T09:20:49.345Z,1.20
2022-12-10T09:23:17.321Z,1.30
2022-12-10T09:25:46.681Z,1.30
2022-12-10T09:28:14.691Z,1.30
2022-12-10T09:30:42.819Z,1.30
2022-12-10T09:33:11.158Z,1.30
2022-12-10T09:35:42.854Z,1.20
2022-12-10T09:38:11.423Z,1.20
2022-12-10T09:40:45.498Z,1.30
2022-12-10T09:43:22.200Z,1.30
2022-12-10T09:45:58.683Z,1.20
2022-12-10T09:48:34.674Z,1.30
2022-12-10T09:51:10.732Z,1.30
2022-12-10T09:53:40.709Z,1.30
2022-12-10T09:56:16.703Z,1.30
2022-12-10T09:58:46.078Z,1.30
2022-12-10T10:01:16.977Z,1.30
2022-12-10T10:03:48.628Z,1.30
2022-12-10T10:06:17.776Z,1.30
2022-12-10T10:08:48.400Z,1.30
2022-12-10T10:11:20.292Z,1.30
2022-12-10T10:13:54.241Z,1.30
2022-12-10T10:16:26.887Z,1.30
2022-12-10T10:18:59.796Z,1.30
2022-12-10T10:21:29.707Z,1.30
2022-12-10T10:23:58.523Z,1.30
2022-12-10T10:26:27.973Z,1.30
2022-12-10T10:29:00.776Z,1.30
2022-12-10T10:31:30.580Z,1.30
2022-12-10T10:34:00.250Z,1.30
2022-12-10T10:36:30.664Z,1.40
2022-12-10T10:38:58.884Z,1.40
2022-12-10T10:41:27.714Z,1.40
2022-12-10T10:44:04.809Z,1.40
2022-12-10T10:46:38.120Z,1.40
2022-12-10T10:49:20.465Z,1.40
2022-12-10T10:51:48.648Z,1.40
2022-12-10T10:54:34.112Z,1.40
2022-12-10T10:57:05.902Z,1.40
2022-12-10T10:59:38.446Z,1.40
2022-12-10T11:02:18.446Z,1.40
2022-12-10T11:04:49.867Z,1.40
2022-12-10T11:07:26.216Z,1.50
2022-12-10T11:09:56.647Z,1.50
2022-12-10T11:12:40.287Z,1.50
2022-12-10T11:15:33.205Z,1.50
2022-12-10T11:18:01.427Z,1.50
2022-12-10T11:20:31.860Z,1.50
2022-12-10T11:23:02.377Z,1.50
2022-12-10T11:25:43.407Z,1.50
2022-12-10T11:28:34.136Z,1.50
2022-12-10T11:31:15.521Z,1.50
2022-12-10T11:33:54.344Z,1.60
2022-12-10T11:36:33.444Z,1.60
2022-12-10T11:39:16.860Z,1.60
2022-12-10T11:41:51.616Z,1.60
2022-12-10T11:44:27.692Z,1.60
2022-12-10T11:47:24.101Z,1.60
2022-12-10T11:50:07.719Z,1.60
2022-12-10T11:52:51.236Z,1.60
2022-12-10T11:55:33.886Z,1.60
2022-12-10T11:58:19.573Z,1.60
2022-12-10T12:01:06.239Z,1.70
2022-12-10T12:03:53.886Z,1.70
2022-12-10T12:06:51.956Z,1.60
2022-12-10T12:09:36.832Z,1.70
2022-12-10T12:12:16.720Z,1.70
2022-12-10T12:14:48.995Z,1.70
2022-12-10T12:17:23.282Z,1.70
2022-12-10T12:19:56.122Z,1.70
2022-12-10T12:22:27.856Z,1.70
2022-12-10T12:25:01.361Z,1.70
2022-12-10T12:27:34.036Z,1.70
2022-12-10T12:30:15.280Z,1.70
2022-12-10T12:32:51.534Z,1.70
2022-12-10T12:35:25.318Z,1.70
2022-12-10T12:37:57.922Z,1.70
2022-12-10T12:40:31.332Z,1.70
2022-12-10T12:43:03.554Z,1.70
2022-12-10T12:45:38.537Z,1.80
2022-12-10T12:48:18.842Z,1.80
2022-12-10T12:50:51.860Z,1.80
2022-12-10T12:53:23.094Z,1.80
2022-12-10T12:55:58.827Z,1.80
2022-12-10T12:58:35.755Z,1.80
2022-12-10T13:01:21.342Z,1.80
2022-12-10T13:03:51.660Z,1.80
2022-12-10T13:06:25.168Z,1.80
2022-12-10T13:08:59.685Z,1.80
2022-12-10T13:11:33.760Z,1.80
2022-12-10T13:14:19.098Z,1.80
2022-12-10T13:17:01.212Z,1.80
2022-12-10T13:19:32.280Z,1.80
2022-12-10T13:22:06.004Z,1.80
2022-12-10T13:25:14.593Z,1.80
2022-12-10T13:27:43.228Z,1.80
2022-12-10T13:30:36.330Z,1.90
2022-12-10T13:33:18.460Z,1.90
2022-12-10T13:35:58.178Z,1.90
2022-12-10T13:38:28.912Z,1.90
2022-12-10T13:41:22.180Z,1.90
2022-12-10T13:44:20.385Z,1.80
2022-12-10T13:47:00.285Z,1.80
2022-12-10T13:49:30.445Z,1.80
2022-12-10T13:52:01.963Z,1.90
2022-12-10T13:55:02.792Z,1.80
2022-12-10T13:57:46.953Z,1.90
2022-12-10T14:00:19.122Z,1.90
2022-12-10T14:03:22.137Z,1.90
2022-12-10T14:06:04.934Z,1.90
2022-12-10T14:08:36.069Z,1.90
2022-12-10T14:11:08.164Z,1.90
2022-12-10T14:13:44.340Z,1.90
2022-12-10T14:16:15.899Z,1.90
2022-12-10T14:18:45.660Z,1.90
2022-12-10T14:21:17.285Z,1.90
2022-12-10T14:23:50.639Z,1.90
2022-12-10T14:26:30.657Z,1.90
2022-12-10T14:29:00.957Z,1.90
2022-12-10T14:31:32.394Z,1.90
2022-12-10T14:34:03.892Z,1.90
2022-12-10T14:36:34.601Z,1.90
2022-12-10T14:39:03.065Z,1.90
2022-12-10T14:41:40.497Z,1.90
2022-12-10T14:44:12.253Z,1.90
2022-12-10T14:46:40.409Z,1.90
2022-12-10T14:49:15.692Z,1.90
2022-12-10T14:51:43.693Z,1.90
2022-12-10T14:54:27.272Z,1.90
2022-12-10T14:56:57.711Z,1.90
2022-12-10T14:59:33.597Z,1.90
2022-12-10T15:02:04.722Z,1.90
2022-12-10T15:04:43.014Z,1.90
2022-12-10T15:07:16.477Z,1.90
2022-12-10T15:09:44.674Z,1.90
2022-12-10T15:12:32.357Z,1.90
2022-12-10T15:15:07.932Z,1.90
2022-12-10T15:17:39.297Z,1.90
2022-12-10T15:20:22.908Z,1.90
2022-12-10T15:22:50.976Z,1.90
2022-12-10T15:25:24.857Z,2.00
2022-12-10T15:27:59.199Z,2.00
2022-12-10T15:30:36.132Z,1.90
2022-12-10T15:33:04.229Z,2.00
2022-12-10T15:35:36.964Z,1.90
2022-12-10T15:38:05.518Z,1.90
2022-12-10T15:40:33.661Z,1.90
2022-12-10T15:43:26.183Z,1.90
2022-12-10T15:45:54.242Z,2.00
2022-12-10T15:48:24.949Z,1.90
2022-12-10T15:50:53.121Z,1.90
2022-12-10T15:53:33.638Z,2.00
2022-12-10T15:56:03.677Z,2.00
2022-12-10T15:58:33.056Z,2.00
2022-12-10T16:01:02.655Z,2.00
2022-12-10T16:03:31.235Z,2.00
2022-12-10T16:05:59.300Z,2.00
2022-12-10T16:08:29.428Z,2.00
2022-12-10T16:11:01.671Z,2.00
2022-12-10T16:13:35.304Z,2.00
2022-12-10T16:16:07.047Z,2.00
2022-12-10T16:18:37.013Z,2.00
2022-12-10T16:21:08.864Z,2.00
2022-12-10T16:23:38.112Z,2.00
2022-12-10T16:26:14.401Z,2.00
2022-12-10T16:28:43.962Z,2.00
2022-12-10T16:31:14.062Z,2.00
2022-12-10T16:33:42.260Z,2.00
2022-12-10T16:36:11.708Z,2.00
2022-12-10T16:38:39.887Z,2.00
2022-12-10T16:41:18.575Z,2.00
2022-12-10T16:43:47.904Z,2.00
2022-12-10T16:46:15.950Z,2.00
2022-12-10T16:48:44.236Z,2.00
2022-12-10T16:51:20.175Z,2.00
2022-12-10T16:53:48.214Z,2.00
2022-12-10T16:56:17.540Z,2.00
2022-12-10T16:58:47.461Z,2.10
2022-12-10T17:01:22.073Z,2.10
2022-12-10T17:03:51.012Z,2.10
2022-12-10T17:06:19.530Z,2.10
2022-12-10T17:08:47.649Z,2.00
2022-12-10T17:11:37.519Z,2.00
2022-12-10T17:14:08.391Z,2.00
2022-12-10T17:16:36.419Z,2.10
2022-12-10T17:19:04.520Z,2.10
2022-12-10T17:21:38.306Z,2.10
2022-12-10T17:24:07.538Z,2.10
2022-12-10T17:26:39.093Z,2.10
2022-12-10T17:29:13.527Z,2.10
2022-12-10T17:31:41.686Z,2.10
2022-12-10T17:34:11.749Z,2.10
2022-12-10T17:36:40.235Z,2.10
2022-12-10T17:39:08.689Z,2.10
2022-12-10T17:41:37.451Z,2.10
2022-12-10T17:44:05.516Z,2.10
2022-12-10T17:46:34.987Z,2.10
2022-12-10T17:49:03.417Z,2.10
2022-12-10T17:51:32.720Z,2.10
2022-12-10T17:54:00.884Z,2.10
2022-12-10T17:56:30.781Z,2.10
2022-12-10T17:58:59.527Z,2.10
2022-12-10T18:01:28.333Z,2.10
2022-12-10T18:03:57.784Z,2.10
2022-12-10T18:06:28.042Z,2.10
2022-12-10T18:08:58.036Z,2.10
2022-12-10T18:11:29.392Z,2.10
2022-12-10T18:13:57.525Z,2.10
2022-12-10T18:16:28.423Z,2.20
2022-12-10T18:18:58.550Z,2.20
2022-12-10T18:21:27.191Z,2.20
2022-12-10T18:23:55.428Z,2.20
2022-12-10T18:26:25.046Z,2.20
2022-12-10T18:28:55.783Z,2.20
2022-12-10T18:31:27.059Z,2.20
2022-12-10T18:33:59.873Z,2.20
2022-12-10T18:36:31.203Z,2.20
2022-12-10T18:39:00.712Z,2.20
2022-12-10T18:41:29.122Z,2.20
2022-12-10T18:43:57.195Z,2.20
2022-12-10T18:46:28.786Z,2.20
2022-12-10T18:48:58.271Z,2.20
2022-12-10T18:51:26.528Z,2.20
2022-12-10T18:53:54.534Z,2.20
2022-12-10T18:56:26.078Z,2.20
2022-12-10T18:58:54.650Z,2.30
2022-12-10T19:01:24.981Z,2.20
2022-12-10T19:03:53.022Z,2.30
2022-12-10T19:06:24.233Z,2.20
2022-12-10T19:11:41.301Z,2.20
2022-12-10T19:14:09.369Z,2.30
2022-12-10T19:16:37.421Z,2.30
2022-12-10T19:19:06.332Z,2.30
2022-12-10T19:21:35.769Z,2.30
2022-12-10T19:24:03.770Z,2.30
2022-12-10T19:26:34.143Z,2.30
2022-12-10T19:29:03.263Z,2.30
2022-12-10T19:31:31.435Z,2.30
2022-12-10T19:33:59.428Z,2.30
2022-12-10T19:36:29.958Z,2.30
2022-12-10T19:38:59.572Z,2.30
2022-12-10T19:41:27.640Z,2.30
2022-12-10T19:43:55.642Z,2.30
2022-12-10T19:46:25.461Z,2.30
2022-12-10T19:48:54.565Z,2.30
2022-12-10T19:51:24.477Z,2.30
2022-12-10T19:53:55.546Z,2.30
2022-12-10T19:56:27.526Z,2.40
2022-12-10T19:58:57.714Z,2.40
2022-12-10T20:01:26.423Z,2.40
2022-12-10T20:03:55.186Z,2.40
2022-12-10T20:06:29.476Z,2.40
2022-12-10T20:08:57.744Z,2.40
2022-12-10T20:11:27.323Z,2.40
2022-12-10T20:13:55.396Z,2.40
2022-12-10T20:16:25.804Z,2.40
2022-12-10T20:18:54.802Z,2.40
2022-12-10T20:21:24.018Z,2.40
2022-12-10T20:23:52.451Z,2.40
2022-12-10T20:26:24.917Z,2.40
2022-12-10T20:28:54.257Z,2.40
2022-12-10T20:31:22.531Z,2.40
2022-12-10T20:33:50.579Z,2.40
2022-12-10T20:36:22.371Z,2.50
2022-12-10T20:38:50.648Z,2.40
2022-12-10T20:41:20.214Z,2.40
2022-12-10T20:43:49.913Z,2.40
2022-12-10T20:46:22.997Z,2.50
2022-12-10T20:48:51.575Z,2.50
2022-12-10T20:51:19.855Z,2.50
2022-12-10T20:53:48.425Z,2.50
2022-12-10T20:56:19.602Z,2.50
2022-12-10T20:58:48.285Z,2.50
2022-12-10T21:01:16.814Z,2.50
2022-12-10T21:03:48.357Z,2.50
2022-12-10T21:06:18.695Z,2.50
2022-12-10T21:08:47.326Z,2.50
2022-12-10T21:11:16.269Z,2.50
2022-12-10T21:13:44.551Z,2.50
2022-12-10T21:16:15.659Z,2.50
2022-12-10T21:18:44.224Z,2.50
2022-12-10T21:21:15.117Z,2.50
2022-12-10T21:23:43.453Z,2.50
2022-12-10T21:26:12.603Z,2.50
2022-12-10T21:28:40.793Z,2.50
2022-12-10T21:31:15.857Z,2.50
2022-12-10T21:33:44.005Z,2.50
2022-12-10T21:36:14.237Z,2.50
2022-12-10T21:38:42.385Z,2.50
2022-12-10T21:41:25.830Z,2.50
2022-12-10T21:43:54.163Z,2.60
2022-12-10T21:46:22.432Z,2.60
2022-12-10T21:48:50.763Z,2.60
2022-12-10T21:51:20.229Z,2.60
2022-12-10T21:53:48.395Z,2.60
2022-12-10T21:56:17.046Z,2.50
2022-12-10T21:58:45.024Z,2.50
2022-12-10T22:01:13.827Z,2.50
2022-12-10T22:03:42.043Z,2.60
2022-12-10T22:06:10.414Z,2.60
2022-12-10T22:08:39.872Z,2.60
2022-12-10T22:11:08.556Z,2.60
2022-12-10T22:13:36.609Z,2.60
2022-12-10T22:16:04.880Z,2.60
2022-12-10T22:18:32.904Z,2.60
2022-12-10T22:21:02.004Z,2.60
2022-12-10T22:23:30.348Z,2.60
2022-12-10T22:25:59.704Z,2.60
2022-12-10T22:28:28.972Z,2.60
2022-12-10T22:30:57.281Z,2.60
2022-12-10T22:33:25.448Z,2.60
2022-12-10T22:35:53.503Z,2.60
2022-12-10T22:38:21.465Z,2.60
2022-12-10T22:40:49.406Z,2.60
2022-12-10T22:43:49.224Z,2.60
2022-12-10T22:46:07.193Z,2.60
2022-12-10T22:48:35.320Z,2.60
2022-12-10T22:51:04.886Z,2.60
2022-12-10T22:53:33.246Z,2.60
2022-12-10T22:56:01.695Z,2.60
2022-12-10T22:58:31.834Z,2.60
2022-12-10T23:01:00.345Z,2.60
2022-12-10T23:03:28.995Z,2.60
2022-12-10T23:05:57.225Z,2.60
2022-12-10T23:08:25.473Z,2.60
2022-12-10T23:10:53.640Z,2.60
2022-12-10T23:13:22.329Z,2.60
2022-12-10T23:15:53.176Z,2.60
2022-12-10T23:18:22.456Z,2.60
2022-12-10T23:20:50.999Z,2.60
2022-12-10T23:23:19.386Z,2.60
2022-12-10T23:25:47.852Z,2.60
2022-12-10T23:28:16.344Z,2.60
2022-12-10T23:30:45.395Z,2.60
2022-12-10T23:33:14.734Z,2.60
2022-12-10T23:35:43.573Z,2.60
2022-12-10T23:38:11.792Z,2.60
2022-12-10T23:40:41.402Z,2.60
2022-12-10T23:43:09.995Z,2.60
2022-12-10T23:45:38.027Z,2.60
2022-12-10T23:48:06.940Z,2.60
2022-12-10T23:50:36.333Z,2.60
2022-12-10T23:53:06.399Z,2.60
2022-12-10T23:55:34.874Z,2.60
2022-12-10T23:58:02.877Z,2.60
